createdAt,value
2018-07-26T00:01:04.828Z,14.17
2018-07-26T00:03:07.794Z,13.27
2018-07-26T00:05:10.699Z,10.53
2018-07-26T00:07:13.828Z,16.87
2018-07-26T00:09:16.949Z,11.50
2018-07-26T00:11:20.079Z,12.50
2018-07-26T00:13:23.223Z,15.57
2018-07-26T00:15:26.395Z,12.83
2018-07-26T00:17:29.540Z,15.20
2018-07-26T00:19:32.675Z,11.47
2018-07-26T00:21:35.867Z,14.53
2018-07-26T00:23:38.925Z,17.13
2018-07-26T00:25:42.048Z,16.80
2018-07-26T00:27:45.172Z,20.83
2018-07-26T00:29:48.288Z,12.20
2018-07-26T00:31:51.423Z,16.77
2018-07-26T00:33:54.543Z,11.80
2018-07-26T00:35:57.674Z,14.07
2018-07-26T00:38:00.793Z,14.10
2018-07-26T00:40:04.340Z,28.63
2018-07-26T00:42:07.475Z,13.60
2018-07-26T00:44:10.588Z,11.93
2018-07-26T00:46:13.903Z,15.17
2018-07-26T00:48:17.046Z,17.37
2018-07-26T00:50:20.181Z,13.73
2018-07-26T00:52:23.312Z,19.83
2018-07-26T00:54:26.448Z,14.63
2018-07-26T00:56:29.607Z,20.97
2018-07-26T00:58:32.703Z,15.93
2018-07-26T01:00:35.838Z,17.10
2018-07-26T01:02:38.962Z,15.73
2018-07-26T01:04:42.094Z,16.20
2018-07-26T01:06:45.228Z,13.80
2018-07-26T01:08:48.355Z,19.67
2018-07-26T01:10:51.495Z,23.57
2018-07-26T01:12:54.615Z,20.00
2018-07-26T01:14:57.744Z,16.03
2018-07-26T01:17:00.872Z,24.60
2018-07-26T01:19:04.372Z,18.87
2018-07-26T01:21:07.499Z,25.90
2018-07-26T01:25:19.016Z,19.13
2018-07-26T01:27:22.138Z,18.50
2018-07-26T01:29:25.309Z,23.73
2018-07-26T01:31:28.416Z,12.00
2018-07-26T01:33:31.551Z,15.17
2018-07-26T01:35:34.678Z,14.63
2018-07-26T01:37:37.822Z,14.33
2018-07-26T01:39:40.973Z,12.70
2018-07-26T01:41:44.116Z,14.33
2018-07-26T01:43:58.671Z,15.70
2018-07-26T01:46:01.804Z,26.77
2018-07-26T01:48:05.090Z,13.87
2018-07-26T01:50:08.228Z,23.70
2018-07-26T01:52:11.364Z,19.73
2018-07-26T01:54:14.648Z,21.10
2018-07-26T01:56:17.780Z,16.13
2018-07-26T01:58:20.918Z,16.57
2018-07-26T02:00:24.040Z,13.17
2018-07-26T02:02:27.189Z,19.50
2018-07-26T02:04:30.317Z,15.93
2018-07-26T02:06:33.424Z,20.17
2018-07-26T02:08:36.512Z,18.57
2018-07-26T02:10:39.602Z,16.97
2018-07-26T02:12:42.691Z,17.03
2018-07-26T02:14:45.797Z,14.40
2018-07-26T02:16:48.895Z,20.73
2018-07-26T02:18:51.991Z,15.63
2018-07-26T02:20:55.247Z,16.17
2018-07-26T02:22:58.354Z,16.17
2018-07-26T02:25:01.465Z,15.63
2018-07-26T02:27:04.860Z,19.40
2018-07-26T02:29:07.976Z,18.60
2018-07-26T02:31:11.130Z,20.67
2018-07-26T02:33:14.472Z,13.30
2018-07-26T02:35:17.568Z,16.73
2018-07-26T02:37:20.668Z,22.07
2018-07-26T02:39:23.787Z,26.47
2018-07-26T02:41:26.881Z,13.87
2018-07-26T02:43:30.511Z,25.30
2018-07-26T02:45:33.792Z,24.10
2018-07-26T02:47:36.952Z,18.07
2018-07-26T02:49:40.089Z,16.67
2018-07-26T02:51:43.202Z,14.13
2018-07-26T02:53:46.300Z,16.00
2018-07-26T02:55:49.396Z,20.80
2018-07-26T02:57:53.011Z,16.80
2018-07-26T02:59:56.104Z,15.33
2018-07-26T03:01:59.225Z,12.80
2018-07-26T03:04:02.392Z,16.43
2018-07-26T03:06:05.491Z,14.90
2018-07-26T03:08:08.636Z,15.33
2018-07-26T03:10:11.704Z,16.00
2018-07-26T03:12:14.827Z,18.50
2018-07-26T03:14:17.949Z,22.23
2018-07-26T03:16:21.180Z,17.43
2018-07-26T03:18:24.288Z,15.87
2018-07-26T03:20:27.384Z,13.13
2018-07-26T03:22:30.560Z,16.30
2018-07-26T03:24:33.672Z,15.30
2018-07-26T03:26:36.780Z,24.00
2018-07-26T03:28:39.887Z,27.43
2018-07-26T03:30:43.187Z,20.50
2018-07-26T03:32:46.291Z,24.50
2018-07-26T03:34:49.412Z,14.00
2018-07-26T03:36:52.548Z,14.40
2018-07-26T03:38:55.756Z,18.13
2018-07-26T03:40:58.842Z,19.73
2018-07-26T03:43:01.964Z,18.30
2018-07-26T03:45:05.539Z,17.83
2018-07-26T03:47:08.673Z,16.23
2018-07-26T03:49:11.976Z,21.10
2018-07-26T03:51:15.307Z,23.23
2018-07-26T03:53:18.361Z,20.33
2018-07-26T03:55:21.460Z,18.83
2018-07-26T03:57:24.611Z,17.10
2018-07-26T03:59:27.711Z,18.87
2018-07-26T04:01:30.799Z,21.60
2018-07-26T04:03:33.928Z,16.20
2018-07-26T04:05:37.111Z,19.83
2018-07-26T04:07:40.164Z,21.17
2018-07-26T04:09:43.248Z,22.00
2018-07-26T04:11:46.819Z,22.87
2018-07-26T04:13:49.938Z,23.57
2018-07-26T04:15:53.036Z,16.83
2018-07-26T04:18:01.612Z,20.43
2018-07-26T04:20:04.913Z,15.87
2018-07-26T04:22:07.988Z,16.10
2018-07-26T04:24:11.112Z,17.93
2018-07-26T04:26:14.211Z,18.07
2018-07-26T04:28:17.331Z,20.00
2018-07-26T04:30:20.410Z,26.10
2018-07-26T04:32:23.514Z,26.00
2018-07-26T04:34:26.623Z,14.13
2018-07-26T04:36:29.592Z,21.07
2018-07-26T04:38:32.708Z,21.00
2018-07-26T04:40:35.835Z,21.10
2018-07-26T04:42:38.930Z,25.43
2018-07-26T04:44:42.040Z,17.53
2018-07-26T04:46:45.132Z,17.03
2018-07-26T04:48:48.280Z,23.90
2018-07-26T04:50:51.388Z,22.73
2018-07-26T04:52:54.611Z,24.37
2018-07-26T04:54:57.632Z,14.17
2018-07-26T04:57:00.740Z,14.27
2018-07-26T04:59:03.829Z,16.67
2018-07-26T05:01:06.935Z,31.73
2018-07-26T05:03:09.814Z,16.03
2018-07-26T05:05:12.964Z,14.73
2018-07-26T05:07:16.248Z,11.33
2018-07-26T05:09:19.245Z,16.83
2018-07-26T05:11:22.148Z,16.67
2018-07-26T05:13:25.277Z,19.40
2018-07-26T05:15:28.412Z,17.10
2018-07-26T05:17:31.531Z,17.60
2018-07-26T05:19:34.663Z,16.70
2018-07-26T05:21:37.947Z,13.50
2018-07-26T05:23:41.071Z,12.00
2018-07-26T05:25:44.015Z,27.53
2018-07-26T05:27:47.153Z,25.87
2018-07-26T05:29:50.280Z,21.27
2018-07-26T05:31:53.443Z,19.47
2018-07-26T05:33:56.560Z,15.57
2018-07-26T05:35:59.683Z,12.90
2018-07-26T05:38:02.831Z,10.77
2018-07-26T05:40:06.016Z,35.57
2018-07-26T05:42:09.120Z,17.47
2018-07-26T05:44:12.016Z,16.57
2018-07-26T05:46:15.152Z,36.17
2018-07-26T05:48:18.259Z,21.37
2018-07-26T05:50:21.407Z,21.07
2018-07-26T05:52:24.544Z,22.10
2018-07-26T05:54:27.427Z,18.37
2018-07-26T05:56:30.392Z,19.00
2018-07-26T05:58:33.512Z,26.03
2018-07-26T06:00:36.641Z,37.07
2018-07-26T06:02:39.766Z,22.57
2018-07-26T06:04:42.748Z,19.00
2018-07-26T06:06:45.867Z,40.43
2018-07-26T06:08:48.979Z,25.17
2018-07-26T06:10:52.100Z,47.23
2018-07-26T06:12:55.607Z,28.70
2018-07-26T06:14:58.720Z,24.03
2018-07-26T06:17:01.842Z,30.93
2018-07-26T06:19:05.091Z,23.10
2018-07-26T06:21:08.218Z,31.13
2018-07-26T06:23:11.331Z,26.73
2018-07-26T06:25:14.449Z,15.73
2018-07-26T06:27:17.576Z,21.43
2018-07-26T06:29:20.699Z,25.93
2018-07-26T06:31:23.838Z,19.23
2018-07-26T06:33:27.135Z,26.03
2018-07-26T06:35:30.240Z,20.43
2018-07-26T06:37:33.212Z,32.23
2018-07-26T06:39:36.383Z,13.37
2018-07-26T06:41:39.479Z,23.43
2018-07-26T06:43:42.599Z,15.93
2018-07-26T06:45:45.718Z,31.77
2018-07-26T06:47:48.876Z,30.90
2018-07-26T06:49:52.000Z,16.17
2018-07-26T06:51:55.136Z,15.53
2018-07-26T06:53:58.252Z,21.87
2018-07-26T06:56:01.378Z,19.30
2018-07-26T06:58:04.543Z,24.07
2018-07-26T07:00:09.032Z,21.20
2018-07-26T07:02:12.776Z,17.90
2018-07-26T07:04:15.879Z,16.80
2018-07-26T07:06:18.834Z,21.20
2018-07-26T07:08:22.039Z,14.10
2018-07-26T07:10:25.123Z,12.77
2018-07-26T07:12:27.995Z,9.97
2018-07-26T07:14:30.890Z,14.23
2018-07-26T07:16:33.764Z,14.30
2018-07-26T07:18:36.659Z,20.87
2018-07-26T07:20:39.648Z,18.97
2018-07-26T07:22:42.601Z,17.17
2018-07-26T07:24:45.470Z,15.80
2018-07-26T07:26:48.989Z,19.30
2018-07-26T07:28:51.874Z,8.97
2018-07-26T07:30:54.756Z,11.07
2018-07-26T07:32:57.835Z,26.10
2018-07-26T07:35:00.928Z,12.50
2018-07-26T07:37:03.808Z,14.63
2018-07-26T07:39:08.710Z,16.43
2018-07-26T07:41:11.619Z,13.83
2018-07-26T07:43:14.486Z,16.70
2018-07-26T07:45:17.451Z,14.70
2018-07-26T07:47:20.501Z,18.40
2018-07-26T07:49:23.341Z,20.10
2018-07-26T07:51:26.206Z,22.97
2018-07-26T07:53:29.099Z,10.13
2018-07-26T07:55:32.030Z,17.37
2018-07-26T07:57:34.931Z,14.97
2018-07-26T07:59:37.977Z,11.90
2018-07-26T08:01:40.815Z,29.63
2018-07-26T08:03:43.701Z,25.30
2018-07-26T08:05:46.595Z,12.57
2018-07-26T08:07:49.467Z,17.23
2018-07-26T08:09:52.342Z,19.87
2018-07-26T08:11:55.215Z,10.13
2018-07-26T08:13:58.086Z,15.50
2018-07-26T08:16:01.076Z,12.60
2018-07-26T08:18:03.952Z,7.07
2018-07-26T08:20:07.887Z,12.43
2018-07-26T08:22:10.823Z,8.97
2018-07-26T08:24:13.723Z,21.00
2018-07-26T08:26:16.603Z,7.50
2018-07-26T08:28:19.555Z,8.17
2018-07-26T08:30:22.432Z,15.10
2018-07-26T08:32:25.540Z,15.77
2018-07-26T08:34:28.419Z,8.27
2018-07-26T08:36:31.419Z,11.37
2018-07-26T08:38:34.295Z,27.63
2018-07-26T08:40:37.170Z,8.90
2018-07-26T08:42:40.145Z,17.40
2018-07-26T08:44:43.243Z,6.47
2018-07-26T08:46:46.364Z,5.27
2018-07-26T08:48:49.275Z,14.83
2018-07-26T08:50:52.381Z,13.57
2018-07-26T08:52:55.507Z,7.17
2018-07-26T08:54:58.603Z,8.23
2018-07-26T08:57:01.700Z,3.40
2018-07-26T08:59:04.857Z,12.23
2018-07-26T09:01:07.985Z,7.30
2018-07-26T09:03:11.060Z,3.63
2018-07-26T09:05:14.356Z,6.50
2018-07-26T09:07:17.487Z,14.03
2018-07-26T09:09:20.644Z,6.40
2018-07-26T09:11:23.812Z,4.97
2018-07-26T09:13:26.944Z,2.53
2018-07-26T09:15:30.040Z,13.13
2018-07-26T09:17:32.984Z,14.93
2018-07-26T09:19:35.982Z,16.40
2018-07-26T09:21:38.878Z,16.87
2018-07-26T09:23:41.847Z,10.30
2018-07-26T09:25:44.730Z,6.40
2018-07-26T09:27:47.682Z,6.40
2018-07-26T09:29:50.583Z,6.20
2018-07-26T09:31:53.548Z,2.50
2018-07-26T09:33:56.445Z,6.03
2018-07-26T09:35:59.335Z,5.27
2018-07-26T09:38:02.234Z,9.47
2018-07-26T09:40:05.140Z,6.70
2018-07-26T09:42:08.038Z,1.63
2018-07-26T09:44:10.928Z,5.17
2018-07-26T09:46:14.351Z,7.90
2018-07-26T09:48:17.290Z,3.83
2018-07-26T09:50:20.484Z,11.33
2018-07-26T09:52:23.601Z,3.60
2018-07-26T09:54:26.700Z,6.37
2018-07-26T09:56:29.603Z,5.10
2018-07-26T09:58:32.756Z,3.03
2018-07-26T10:00:41.746Z,10.33
2018-07-26T10:02:44.899Z,2.10
2018-07-26T10:04:48.011Z,6.10
2018-07-26T10:06:51.187Z,5.17
2018-07-26T10:08:55.095Z,5.90
2018-07-26T10:10:58.339Z,3.50
2018-07-26T10:13:01.233Z,4.20
2018-07-26T10:15:04.953Z,8.30
2018-07-26T10:17:08.063Z,3.33
2018-07-26T10:19:11.173Z,5.60
2018-07-26T10:21:14.436Z,7.37
2018-07-26T10:23:17.549Z,3.63
2018-07-26T10:25:20.666Z,12.20
2018-07-26T10:27:23.787Z,5.30
2018-07-26T10:29:27.079Z,15.10
2018-07-26T10:31:30.236Z,3.27
2018-07-26T10:33:33.352Z,2.30
2018-07-26T10:35:36.465Z,2.40
2018-07-26T10:37:39.592Z,11.60
2018-07-26T10:39:42.699Z,8.93
2018-07-26T10:41:45.832Z,3.90
2018-07-26T10:43:48.940Z,1.83
2018-07-26T10:45:52.061Z,11.33
2018-07-26T10:47:55.197Z,6.63
2018-07-26T10:49:58.321Z,3.10
2018-07-26T10:52:01.194Z,1.40
2018-07-26T10:54:04.320Z,14.93
2018-07-26T10:56:07.431Z,2.53
2018-07-26T10:58:10.579Z,8.03
2018-07-26T11:00:13.736Z,2.70
2018-07-26T11:02:16.823Z,4.00
2018-07-26T11:04:19.939Z,12.40
2018-07-26T11:06:23.047Z,5.17
2018-07-26T11:08:25.951Z,1.93
2018-07-26T11:10:29.069Z,7.23
2018-07-26T11:12:32.224Z,3.97
2018-07-26T11:14:35.340Z,2.00
2018-07-26T11:16:38.514Z,3.77
2018-07-26T11:18:41.587Z,4.77
2018-07-26T11:20:44.691Z,4.90
2018-07-26T11:22:47.879Z,1.93
2018-07-26T11:24:56.187Z,3.87
2018-07-26T11:26:59.303Z,3.20
2018-07-26T11:29:02.439Z,2.20
2018-07-26T11:31:05.584Z,10.20
2018-07-26T11:33:08.714Z,8.70
2018-07-26T11:35:12.335Z,8.50
2018-07-26T11:37:15.451Z,3.33
2018-07-26T11:39:18.402Z,4.23
2018-07-26T11:41:21.538Z,2.00
2018-07-26T11:43:24.654Z,2.70
2018-07-26T11:45:27.759Z,1.97
2018-07-26T11:47:30.919Z,5.60
2018-07-26T11:49:34.036Z,8.80
2018-07-26T11:51:37.155Z,4.17
2018-07-26T11:53:40.271Z,4.13
2018-07-26T11:55:43.390Z,7.10
2018-07-26T11:57:46.543Z,3.63
2018-07-26T11:59:49.668Z,4.90
2018-07-26T12:01:52.773Z,2.90
2018-07-26T12:03:55.924Z,5.73
2018-07-26T12:05:59.061Z,7.00
2018-07-26T12:08:02.188Z,6.37
2018-07-26T12:10:05.471Z,4.67
2018-07-26T12:12:09.858Z,5.00
2018-07-26T12:14:13.044Z,1.70
2018-07-26T12:16:16.109Z,3.17
2018-07-26T12:18:19.023Z,6.13
2018-07-26T12:20:22.135Z,1.67
2018-07-26T12:22:25.246Z,2.20
2018-07-26T12:24:28.379Z,5.90
2018-07-26T12:26:31.484Z,1.80
2018-07-26T12:28:34.600Z,12.60
2018-07-26T12:30:37.580Z,7.47
2018-07-26T12:32:40.728Z,5.00
2018-07-26T12:34:43.836Z,1.80
2018-07-26T12:36:47.004Z,3.30
2018-07-26T12:38:50.199Z,2.40
2018-07-26T12:40:53.328Z,2.60
2018-07-26T12:42:56.276Z,1.50
2018-07-26T12:44:59.400Z,1.30
2018-07-26T12:47:02.348Z,1.63
2018-07-26T12:49:05.495Z,6.37
2018-07-26T12:51:08.652Z,3.43
2018-07-26T12:53:11.814Z,2.97
2018-07-26T12:55:14.877Z,3.03
2018-07-26T12:57:18.172Z,3.90
2018-07-26T12:59:21.308Z,2.93
2018-07-26T13:01:24.231Z,5.43
2018-07-26T13:03:27.435Z,2.90
2018-07-26T13:05:30.415Z,2.30
2018-07-26T13:07:33.297Z,2.63
2018-07-26T13:09:36.415Z,8.90
2018-07-26T13:11:39.551Z,3.30
2018-07-26T13:13:42.728Z,7.03
2018-07-26T13:15:45.860Z,1.43
2018-07-26T13:17:48.977Z,6.00
2018-07-26T13:19:52.120Z,6.13
2018-07-26T13:21:55.351Z,2.20
2018-07-26T13:23:59.099Z,6.00
2018-07-26T13:26:02.220Z,4.00
2018-07-26T13:28:05.384Z,5.40
2018-07-26T13:30:08.493Z,1.93
2018-07-26T13:32:11.657Z,2.20
2018-07-26T13:34:14.817Z,3.20
2018-07-26T13:36:17.968Z,5.57
2018-07-26T13:38:21.088Z,6.00
2018-07-26T13:40:24.216Z,6.87
2018-07-26T13:42:27.359Z,4.03
2018-07-26T13:44:30.501Z,1.33
2018-07-26T13:46:33.631Z,3.30
2018-07-26T13:48:36.828Z,1.03
2018-07-26T13:50:39.950Z,6.10
2018-07-26T13:52:43.925Z,2.33
2018-07-26T13:54:47.088Z,3.23
2018-07-26T13:56:50.208Z,2.40
2018-07-26T13:58:53.339Z,1.90
2018-07-26T14:00:56.468Z,10.53
2018-07-26T14:02:59.615Z,4.00
2018-07-26T14:05:02.706Z,2.67
2018-07-26T14:07:06.724Z,5.00
2018-07-26T14:09:11.149Z,1.67
2018-07-26T14:11:14.251Z,2.77
2018-07-26T14:13:17.385Z,4.60
2018-07-26T14:15:20.509Z,3.03
2018-07-26T14:17:23.560Z,7.87
2018-07-26T14:19:26.669Z,1.73
2018-07-26T14:21:29.755Z,4.03
2018-07-26T14:23:39.528Z,2.10
2018-07-26T14:25:42.394Z,4.60
2018-07-26T14:27:45.569Z,1.97
2018-07-26T14:29:48.616Z,3.37
2018-07-26T14:31:52.775Z,1.73
2018-07-26T14:33:55.911Z,7.83
2018-07-26T14:35:59.004Z,1.10
2018-07-26T14:38:02.112Z,9.80
2018-07-26T14:40:05.707Z,8.43
2018-07-26T14:42:08.800Z,8.10
2018-07-26T14:44:11.913Z,3.00
2018-07-26T14:46:15.008Z,6.83
2018-07-26T14:48:18.130Z,2.07
2018-07-26T14:50:21.231Z,5.03
2018-07-26T14:52:24.393Z,2.47
2018-07-26T14:54:27.573Z,4.13
2018-07-26T14:56:30.836Z,5.43
2018-07-26T14:58:33.937Z,2.40
2018-07-26T15:00:37.128Z,5.90
2018-07-26T15:02:40.160Z,2.10
2018-07-26T15:04:43.271Z,4.30
2018-07-26T15:06:46.372Z,0.97
2018-07-26T15:08:49.456Z,6.50
2018-07-26T15:10:52.560Z,2.60
2018-07-26T15:12:55.648Z,4.90
2018-07-26T15:14:59.738Z,5.30
2018-07-26T15:17:02.840Z,1.20
2018-07-26T15:19:06.146Z,2.23
2018-07-26T15:21:09.480Z,3.53
2018-07-26T15:23:12.433Z,6.50
2018-07-26T15:25:19.652Z,1.70
2018-07-26T15:27:22.746Z,3.07
2018-07-26T15:29:25.887Z,1.13
2018-07-26T15:31:28.976Z,1.83
2018-07-26T15:33:32.101Z,7.10
2018-07-26T15:35:35.219Z,1.43
2018-07-26T15:37:38.318Z,1.10
2018-07-26T15:39:41.403Z,1.53
2018-07-26T15:41:45.236Z,1.20
2018-07-26T15:43:48.320Z,2.50
2018-07-26T15:45:51.274Z,9.47
2018-07-26T15:47:54.359Z,5.50
2018-07-26T15:49:57.440Z,4.17
2018-07-26T15:52:01.432Z,1.27
2018-07-26T15:54:04.530Z,1.30
2018-07-26T15:56:07.419Z,8.23
2018-07-26T15:58:10.503Z,2.53
2018-07-26T16:00:14.216Z,6.03
2018-07-26T16:02:17.304Z,7.93
2018-07-26T16:04:20.400Z,6.40
2018-07-26T16:06:23.267Z,2.90
2018-07-26T16:08:26.354Z,3.80
2018-07-26T16:10:29.442Z,2.70
2018-07-26T16:12:32.550Z,1.57
2018-07-26T16:14:35.638Z,4.90
2018-07-26T16:16:38.976Z,1.47
2018-07-26T16:18:42.063Z,1.67
2018-07-26T16:20:45.163Z,9.90
2018-07-26T16:22:48.270Z,2.50
2018-07-26T16:24:51.351Z,7.40
2018-07-26T16:26:54.308Z,3.63
2018-07-26T16:28:57.659Z,3.80
2018-07-26T16:31:00.720Z,2.60
2018-07-26T16:33:03.855Z,11.67
2018-07-26T16:35:07.344Z,3.73
2018-07-26T16:37:10.499Z,2.20
2018-07-26T16:39:13.583Z,1.50
2018-07-26T16:41:16.672Z,3.97
2018-07-26T16:43:19.593Z,1.93
2018-07-26T16:45:22.729Z,1.50
2018-07-26T16:47:25.772Z,2.10
2018-07-26T16:49:28.882Z,3.33
2018-07-26T16:51:31.979Z,3.87
2018-07-26T16:53:35.102Z,1.43
2018-07-26T16:55:38.179Z,5.50
2018-07-26T16:57:41.271Z,7.50
2018-07-26T16:59:44.427Z,1.97
2018-07-26T17:01:47.528Z,10.30
2018-07-26T17:03:50.641Z,4.43
2018-07-26T17:05:53.704Z,2.30
2018-07-26T17:07:56.839Z,3.13
2018-07-26T17:09:59.695Z,6.73
2018-07-26T17:12:02.781Z,3.03
2018-07-26T17:14:05.862Z,10.70
2018-07-26T17:16:08.960Z,1.67
2018-07-26T17:18:12.043Z,10.20
2018-07-26T17:20:15.771Z,1.80
2018-07-26T17:22:18.886Z,3.03
2018-07-26T17:24:21.984Z,2.40
2018-07-26T17:26:25.201Z,6.87
2018-07-26T17:28:28.171Z,1.70
2018-07-26T17:30:31.592Z,3.43
2018-07-26T17:32:34.690Z,4.33
2018-07-26T17:34:37.543Z,2.80
2018-07-26T17:36:40.619Z,5.57
2018-07-26T17:38:43.720Z,4.13
2018-07-26T17:40:46.808Z,10.30
2018-07-26T17:42:49.763Z,6.30
2018-07-26T17:44:52.848Z,5.33
2018-07-26T17:46:55.923Z,1.60
2018-07-26T17:48:59.019Z,8.20
2018-07-26T17:51:02.150Z,5.53
2018-07-26T17:53:05.236Z,10.87
2018-07-26T17:55:08.582Z,3.77
2018-07-26T17:57:11.672Z,20.57
2018-07-26T17:59:14.642Z,3.70
2018-07-26T18:01:17.516Z,3.07
2018-07-26T18:03:20.630Z,3.43
2018-07-26T18:05:23.724Z,4.97
2018-07-26T18:07:26.686Z,10.67
2018-07-26T18:09:29.762Z,1.70
2018-07-26T18:11:32.864Z,7.13
2018-07-26T18:13:36.000Z,4.27
2018-07-26T18:15:39.093Z,11.97
2018-07-26T18:17:41.983Z,9.60
2018-07-26T18:19:45.073Z,1.83
2018-07-26T18:21:48.161Z,8.27
2018-07-26T18:23:51.349Z,2.33
2018-07-26T18:25:54.517Z,8.73
2018-07-26T18:27:57.613Z,1.67
2018-07-26T18:30:00.687Z,1.83
2018-07-26T18:32:03.563Z,7.73
2018-07-26T18:34:06.562Z,1.60
2018-07-26T18:36:09.507Z,2.20
2018-07-26T18:38:12.579Z,2.43
2018-07-26T18:40:15.459Z,8.33
2018-07-26T18:42:18.547Z,3.07
2018-07-26T18:44:21.683Z,2.50
2018-07-26T18:46:24.767Z,5.33
2018-07-26T18:48:27.903Z,8.17
2018-07-26T18:50:30.936Z,8.13
2018-07-26T18:52:33.876Z,4.03
2018-07-26T18:54:36.855Z,2.30
2018-07-26T18:56:39.835Z,6.97
2018-07-26T18:58:42.775Z,12.20
2018-07-26T19:00:45.875Z,11.50
2018-07-26T19:02:48.804Z,2.20
2018-07-26T19:04:52.072Z,3.83
2018-07-26T19:06:55.189Z,1.87
2018-07-26T19:08:58.366Z,9.30
2018-07-26T19:11:01.287Z,5.17
2018-07-26T19:13:04.194Z,7.93
2018-07-26T19:15:09.796Z,4.27
2018-07-26T19:17:12.935Z,6.13
2018-07-26T19:19:16.056Z,4.53
2018-07-26T19:21:19.207Z,14.07
2018-07-26T19:23:22.295Z,6.63
2018-07-26T19:25:28.335Z,6.83
2018-07-26T19:27:31.220Z,2.40
2018-07-26T19:29:34.670Z,3.90
2018-07-26T19:31:37.931Z,6.53
2018-07-26T19:33:41.039Z,7.97
2018-07-26T19:35:44.140Z,7.53
2018-07-26T19:37:47.256Z,4.00
2018-07-26T19:39:50.372Z,8.50
2018-07-26T19:41:53.467Z,5.73
2018-07-26T19:43:57.181Z,8.33
2018-07-26T19:46:00.413Z,5.43
2018-07-26T19:48:03.646Z,7.80
2018-07-26T19:50:06.891Z,17.90
2018-07-26T19:52:10.254Z,10.57
2018-07-26T19:54:13.468Z,6.70
2018-07-26T19:56:16.697Z,7.30
2018-07-26T19:58:19.800Z,8.47
2018-07-26T20:00:22.931Z,2.63
2018-07-26T20:02:26.269Z,8.30
2018-07-26T20:04:29.393Z,5.97
2018-07-26T20:06:32.532Z,2.80
2018-07-26T20:08:35.668Z,3.10
2018-07-26T20:10:38.938Z,5.60
2018-07-26T20:12:42.288Z,2.43
2018-07-26T20:14:45.419Z,2.67
2018-07-26T20:16:48.617Z,3.50
2018-07-26T20:18:51.728Z,11.30
2018-07-26T20:20:55.719Z,2.67
2018-07-26T20:22:58.847Z,5.23
2018-07-26T20:25:01.981Z,11.40
2018-07-26T20:27:05.130Z,4.60
2018-07-26T20:29:08.239Z,5.00
2018-07-26T20:31:11.359Z,11.80
2018-07-26T20:33:14.459Z,17.73
2018-07-26T20:35:17.572Z,9.60
2018-07-26T20:37:20.695Z,4.57
2018-07-26T20:39:23.812Z,9.03
2018-07-26T20:41:26.932Z,11.33
2018-07-26T20:43:30.060Z,5.60
2018-07-26T20:45:33.199Z,6.83
2018-07-26T20:47:36.358Z,8.20
2018-07-26T20:49:39.475Z,6.70
2018-07-26T20:51:42.472Z,6.77
2018-07-26T20:53:45.548Z,7.70
2018-07-26T20:55:48.676Z,3.50
2018-07-26T20:57:51.824Z,7.50
2018-07-26T20:59:54.868Z,6.23
2018-07-26T21:01:57.987Z,2.80
2018-07-26T21:04:01.106Z,16.33
2018-07-26T21:06:04.200Z,9.03
2018-07-26T21:08:07.296Z,14.17
2018-07-26T21:10:10.815Z,8.53
2018-07-26T21:12:14.108Z,3.53
2018-07-26T21:14:17.233Z,11.40
2018-07-26T21:16:20.307Z,2.67
2018-07-26T21:18:23.408Z,5.20
2018-07-26T21:20:26.499Z,2.87
2018-07-26T21:22:29.588Z,4.80
2018-07-26T21:24:32.695Z,3.30
2018-07-26T21:26:35.820Z,9.03
2018-07-26T21:28:38.900Z,12.73
2018-07-26T21:30:41.889Z,3.93
2018-07-26T21:32:44.843Z,3.23
2018-07-26T21:34:47.956Z,4.70
2018-07-26T21:36:51.055Z,5.83
2018-07-26T21:38:54.140Z,6.07
2018-07-26T21:40:57.251Z,4.70
2018-07-26T21:43:00.444Z,6.20
2018-07-26T21:45:03.664Z,6.00
2018-07-26T21:47:06.751Z,13.87
2018-07-26T21:49:09.841Z,6.30
2018-07-26T21:51:12.931Z,8.87
2018-07-26T21:53:15.892Z,6.50
2018-07-26T21:55:18.993Z,11.93
2018-07-26T21:57:22.258Z,6.93
2018-07-26T21:59:26.044Z,3.33
2018-07-26T22:01:29.140Z,8.97
2018-07-26T22:03:32.233Z,6.43
2018-07-26T22:05:35.344Z,13.40
2018-07-26T22:07:38.219Z,8.30
2018-07-26T22:09:41.307Z,10.30
2018-07-26T22:11:44.317Z,3.30
2018-07-26T22:13:47.355Z,13.17
2018-07-26T22:15:51.663Z,6.20
2018-07-26T22:17:54.751Z,4.33
2018-07-26T22:19:57.856Z,9.40
2018-07-26T22:22:00.848Z,6.27
2018-07-26T22:24:04.059Z,10.17
2018-07-26T22:26:07.241Z,8.43
2018-07-26T22:28:10.347Z,12.80
2018-07-26T22:30:13.433Z,3.50
2018-07-26T22:32:16.528Z,8.57
2018-07-26T22:34:19.632Z,11.53
2018-07-26T22:36:22.727Z,16.17
2018-07-26T22:38:25.827Z,14.27
2018-07-26T22:40:29.498Z,6.20
2018-07-26T22:42:32.584Z,6.27
2018-07-26T22:44:35.667Z,3.57
2018-07-26T22:46:38.796Z,9.23
2018-07-26T22:48:41.879Z,4.77
2018-07-26T22:50:44.974Z,8.13
2018-07-26T22:52:48.076Z,7.30
2018-07-26T22:54:51.197Z,11.27
2018-07-26T22:56:54.588Z,3.57
2018-07-26T22:58:57.680Z,6.07
2018-07-26T23:01:00.784Z,6.03
2018-07-26T23:03:03.863Z,10.00
2018-07-26T23:05:07.080Z,18.73
2018-07-26T23:07:10.178Z,16.87
2018-07-26T23:09:13.280Z,6.67
2018-07-26T23:11:16.376Z,5.30
2018-07-26T23:13:19.476Z,13.00
2018-07-26T23:15:22.625Z,7.37
2018-07-26T23:17:26.563Z,20.37
2018-07-26T23:19:29.690Z,10.10
2018-07-26T23:21:32.803Z,16.73
2018-07-26T23:23:35.898Z,5.43
2018-07-26T23:25:38.974Z,5.83
2018-07-26T23:27:42.079Z,7.60
2018-07-26T23:29:45.166Z,4.07
2018-07-26T23:31:48.257Z,7.50
2018-07-26T23:33:51.364Z,13.43
2018-07-26T23:35:54.464Z,14.43
2018-07-26T23:37:57.356Z,6.07
2018-07-26T23:40:00.441Z,12.33
2018-07-26T23:42:03.646Z,10.03
2018-07-26T23:44:06.848Z,6.80
2018-07-26T23:46:09.975Z,3.37
2018-07-26T23:48:13.067Z,10.07
2018-07-26T23:50:16.747Z,11.60
2018-07-26T23:52:19.711Z,5.10
2018-07-26T23:54:22.807Z,6.63
2018-07-26T23:56:25.936Z,6.70
2018-07-26T23:58:29.024Z,7.73
